Storm Lake Municipal Airport
Tuesday 12:55 AM
Weather Clear
VFR
Temperature 77°
Dew Point 70°
Feels Like 77°
Relative Humidity 78
%
Visibility 10
mi
Pressure 1005.4
mb
Wind Direction SSE
Wind Speed 17
mph
Last Hour Precip 0.00
"
KSLB 180555Z AUTO 16015G21KT 10SM CLR 25/21 A2969 RMK AO2

Recent Observations

Time Present Weather Temp DP Feels RH% Vsby Pressure Ceiling Direction Speed Gust 1h Precip
12:55AM
VFR
77° 70° 77° 78
%
10
mi
1005.4
mb
None SSE 17
mph
24
mph
0.00"
KSLB 180555Z AUTO 16015G21KT 10SM CLR 25/21 A2969 RMK AO2
12:35AM
VFR
77° 70° 77° 78
%
10
mi
1005.4
mb
None S 18
mph
25
mph
0.00"
KSLB 180535Z AUTO 17016G22KT 10SM CLR 25/21 A2969 RMK AO2
12:10AM
VFR
77° 70° 77° 78
%
10
mi
1005.4
mb
None S 18
mph
0.00"
KSLB 180510Z AUTO 17016KT 10SM CLR 25/21 A2969 RMK AO2
11:55PM
VFR
77° 70° 77° 78
%
10
mi
1005.8
mb
None SSE 17
mph
0.00"
KSLB 180455Z AUTO 16015KT 10SM CLR 25/21 A2970 RMK AO2
11:35PM 77° 70° 77° 78
%
1005.8
mb
None S 18
mph
24
mph
0.00"
KSLB 180435Z AUTO 17016G21KT CLR 25/21 A2970 RMK AO2
11:15PM
VFR
77° 70° 77° 78
%
10
mi
1005.8
mb
None SSE 17
mph
0.00"
KSLB 180415Z AUTO 16015KT 10SM CLR 25/21 A2970 RMK AO2
10:55PM
VFR
79° 70° 79° 74
%
10
mi
1005.8
mb
None SSE 17
mph
0.00"
KSLB 180355Z AUTO 16015KT 10SM CLR 26/21 A2970 RMK AO2
10:35PM
VFR
77° 70° 77° 78
%
10
mi
1005.4
mb
None SSE 16
mph
0.00"
KSLB 180335Z AUTO 16014KT 10SM CLR 25/21 A2969 RMK AO2
10:15PM
VFR
79° 70° 79° 74
%
10
mi
1005.1
mb
None S 17
mph
0.00"
KSLB 180315Z AUTO 17015KT 10SM CLR 26/21 A2968 RMK AO2
9:55PM
VFR
79° 70° 79° 74
%
10
mi
1005.1
mb
None SSE 17
mph
23
mph
0.00"
KSLB 180255Z AUTO 16015G20KT 10SM FEW055 26/21 A2968 RMK AO2
9:35PM
VFR
79° 72° 79° 79
%
10
mi
1005.1
mb
None SSE 20
mph
0.00"
KSLB 180235Z AUTO 16017KT 10SM SCT055 26/22 A2968 RMK AO2
9:15PM
VFR
79° 72° 79° 79
%
10
mi
1005.1
mb
6000
ft
S 18
mph
24
mph
0.00"
KSLB 180215Z AUTO 17016G21KT 10SM BKN060 26/22 A2968 RMK AO2
8:55PM
VFR
81° 72° 85° 74
%
10
mi
1005.1
mb
6000
ft
S 17
mph
0.00"
KSLB 180155Z AUTO 17015KT 10SM OVC060 27/22 A2968 RMK AO2
8:35PM
VFR
81° 70° 84° 70
%
10
mi
1005.4
mb
6000
ft
SSE 18
mph
0.00"
KSLB 180135Z AUTO 16016KT 10SM BKN060 27/21 A2969 RMK AO2
8:15PM
VFR
81° 70° 84° 70
%
9
mi
1005.4
mb
6500
ft
SSE 16
mph
0.00"
KSLB 180115Z AUTO 16014KT 9SM BKN065 27/21 A2969 RMK AO2
7:55PM
VFR
81° 70° 84° 70
%
9
mi
1005.4
mb
None SSE 17
mph
0.00"
KSLB 180055Z AUTO 15015KT 9SM FEW065 27/21 A2969 RMK AO2
7:35PM
VFR
82° 72° 87° 70
%
10
mi
1005.4
mb
None SSE 16
mph
23
mph
0.00"
KSLB 180035Z AUTO 15014G20KT 10SM FEW065 28/22 A2969 RMK AO2
7:15PM
VFR
82° 72° 87° 70
%
9
mi
1005.8
mb
None SSE 17
mph
0.00"
KSLB 180015Z AUTO 15015KT 9SM CLR 28/22 A2970 RMK AO2
6:55PM
VFR
82° 72° 87° 70
%
9
mi
1005.8
mb
None SSE 17
mph
0.00"
KSLB 172355Z AUTO 16015KT 9SM CLR 28/22 A2970 RMK AO2
6:35PM
VFR
82° 72° 87° 70
%
9
mi
1005.8
mb
None SSE 14
mph
0.00"
KSLB 172335Z AUTO 16012KT 9SM CLR 28/22 A2970 RMK AO2
Click here to show this page without METARs/TAFs included